Terminal Aerodrome Forecast
Issued by NWS

Home | Current Version | Previous Version | Text Only | Print | Product List | Glossary On
Versions: 1 2 3 4 5 6 7 8 9 10 11 12 13 14 15 16 17
740
FTUS42 KMLB 240539
TAFISM
TAF
KISM 240539Z 2406/2506 18005KT P6SM FEW060 FEW100
     FM241400 18007KT P6SM SCT030 SCT100 SCT250
     FM242000 13009KT P6SM VCTS SCT040CB BKN100
     FM250000 14006KT P6SM VCSH SCT050 BKN080 BKN250=

USA.gov is the U.S. government's official web portal to all federal, state and local government web resources and services.